Chappaquiddick Island, Massachusetts
Current Conditions -  °F | °C
As of 1:53 PM on Saturday 25 Oct 2014 (Local Time) from KMVY Reporting Station
Clear Clear  
Wind Chill: 62°   Ceiling: Unl
Heat Index: 62°   Visibility: 10mi
Dew Point: 48°   Wind: 13mph
Humidity: 60%   Direction: 250°WSW
Pressure: 29.68"   Gusts: 18mph
Location:  41.3788°N, 70.5416°W
Report Text: KMVY 251753Z 25011G16KT 10SM CLR 17/09 A2968 RMK AO2 SLP050 T01670089 10172 20089 58022
Loading
Personal Weather Stations






























Interactive Weather Map
Tropical Storm Tracking
New forecast layout! Learn more

10-Day Weather Forecast

Advertisements
Track Severe Weather on mobile